createdAt,value
2018-06-19T00:05:28.975Z,6.68
2018-06-19T00:11:24.023Z,6.55
2018-06-19T00:17:19.005Z,6.77
2018-06-19T00:23:14.049Z,6.33
2018-06-19T00:35:04.010Z,6.74
2018-06-19T00:35:04.059Z,6.41
2018-06-19T00:40:59.033Z,6.64
2018-06-19T00:46:54.051Z,6.54
2018-06-19T00:52:48.999Z,6.2
2018-06-19T00:58:44.035Z,6.5
2018-06-19T01:04:39.030Z,6.24
2018-06-19T01:10:34.024Z,5.81
2018-06-19T01:16:29.090Z,6.64
2018-06-19T01:22:24.078Z,6.28
2018-06-19T01:28:19.076Z,6.44
2018-06-19T01:34:14.076Z,6.65
2018-06-19T01:40:09.073Z,6.27
2018-06-19T01:46:04.089Z,6.44
2018-06-19T01:51:59.077Z,6.51
2018-06-19T01:57:54.076Z,6
2018-06-19T02:03:49.061Z,6.57
2018-06-19T02:09:44.105Z,6.82
2018-06-19T02:15:39.086Z,6.52
2018-06-19T02:21:34.097Z,6.29
2018-06-19T02:27:29.071Z,6.8
2018-06-19T02:33:24.075Z,6.42
2018-06-19T02:39:19.129Z,6.55
2018-06-19T02:45:14.154Z,6.91
2018-06-19T02:51:09.122Z,7.15
2018-06-19T02:57:04.080Z,6.61
2018-06-19T03:02:59.114Z,6.63
2018-06-19T03:08:54.094Z,6.59
2018-06-19T03:14:49.109Z,6.53
2018-06-19T03:20:44.136Z,7.02
2018-06-19T03:26:39.136Z,6.42
2018-06-19T03:32:34.151Z,6.13
2018-06-19T03:38:29.104Z,6.77
2018-06-19T03:44:24.128Z,6.69
2018-06-19T03:50:19.136Z,6.85
2018-06-19T03:56:14.115Z,7.27
2018-06-19T04:02:09.116Z,7.09
2018-06-19T04:08:04.236Z,7.16
2018-06-19T04:13:59.154Z,7.59
2018-06-19T04:19:54.192Z,8.06
2018-06-19T04:25:49.161Z,7.58
2018-06-19T04:31:44.125Z,7.91
2018-06-19T04:37:39.201Z,8.47
2018-06-19T04:43:34.158Z,8.27
2018-06-19T04:49:29.165Z,9.39
2018-06-19T04:55:24.155Z,9.21
2018-06-19T05:01:19.218Z,9.93
2018-06-19T05:07:14.196Z,9.77
2018-06-19T05:13:09.197Z,10.13
2018-06-19T05:19:04.219Z,9.92
2018-06-19T05:24:59.182Z,9.88
2018-06-19T05:30:54.212Z,12.63
2018-06-19T05:36:49.189Z,14.26
2018-06-19T05:42:44.282Z,14.31
2018-06-19T05:48:39.206Z,9.7
2018-06-19T05:54:34.194Z,6.91
2018-06-19T06:00:29.216Z,14.37
2018-06-19T06:06:24.187Z,11.06
2018-06-19T06:12:19.222Z,7.76
2018-06-19T06:18:14.225Z,8
2018-06-19T06:24:09.279Z,6.67
2018-06-19T06:30:04.292Z,7.29
2018-06-19T06:35:59.211Z,5.98
2018-06-19T06:41:54.202Z,8.79
2018-06-19T06:47:49.219Z,6.24
2018-06-19T06:53:44.250Z,5.91
2018-06-19T06:59:39.283Z,4.97
2018-06-19T07:05:34.254Z,5.36
2018-06-19T07:11:29.253Z,5.43
2018-06-19T07:17:24.287Z,3.76
2018-06-19T07:23:19.258Z,4.7
2018-06-19T07:29:14.254Z,4.43
2018-06-19T07:35:09.252Z,4.27
2018-06-19T07:41:04.244Z,4.36
2018-06-19T07:46:59.240Z,3.78
2018-06-19T07:52:54.238Z,3.92
2018-06-19T07:58:49.315Z,3.67
2018-06-19T08:04:44.292Z,3.7
2018-06-19T08:10:39.315Z,3.51
2018-06-19T08:16:34.278Z,3.43
2018-06-19T08:22:29.301Z,3.67
2018-06-19T08:28:24.300Z,3.2
2018-06-19T08:34:19.295Z,3.75
2018-06-19T08:40:14.296Z,3.33
2018-06-19T08:46:09.315Z,3.56
2018-06-19T08:52:04.291Z,3.57
2018-06-19T08:57:59.334Z,3.77
2018-06-19T09:03:54.356Z,3.35
2018-06-19T09:09:49.290Z,3.02
2018-06-19T09:15:44.294Z,2.96
2018-06-19T09:21:39.372Z,2.98
2018-06-19T09:27:34.342Z,3.25
2018-06-19T09:33:29.291Z,3.2
2018-06-19T09:39:24.366Z,2.95
2018-06-19T09:45:19.304Z,3.29
2018-06-19T09:51:14.367Z,2.82
2018-06-19T09:57:09.328Z,2.82
2018-06-19T10:03:04.339Z,3.22
2018-06-19T10:08:59.324Z,2.95
2018-06-19T10:14:54.345Z,2.74
2018-06-19T10:20:49.351Z,2.98
2018-06-19T10:26:44.374Z,2.8
2018-06-19T10:32:39.335Z,3.22
2018-06-19T10:38:34.349Z,3.46
2018-06-19T10:44:29.337Z,3.08
2018-06-19T10:50:24.380Z,2.64
2018-06-19T10:56:19.454Z,2.84
2018-06-19T11:02:14.423Z,2.78
2018-06-19T11:08:09.474Z,2.77
2018-06-19T11:14:04.412Z,2.51
2018-06-19T11:19:59.386Z,2.38
2018-06-19T11:25:54.400Z,3.48
2018-06-19T11:31:49.384Z,3.97
2018-06-19T11:37:44.380Z,3.53
2018-06-19T11:43:39.456Z,3.06
2018-06-19T11:49:34.418Z,3.42
2018-06-19T11:55:29.446Z,3.64
2018-06-19T12:01:24.502Z,3.67
2018-06-19T12:07:19.417Z,3.78
2018-06-19T12:13:14.456Z,4.4
2018-06-19T12:19:09.444Z,3.3
2018-06-19T12:25:04.420Z,3.94
2018-06-19T12:30:59.419Z,3.78
2018-06-19T12:36:54.436Z,3.42
2018-06-19T12:42:49.428Z,3.47
2018-06-19T12:48:44.440Z,3.72
2018-06-19T12:54:39.423Z,3.99
2018-06-19T13:00:34.423Z,3.47
2018-06-19T13:06:29.437Z,4.02
2018-06-19T13:12:24.440Z,3.65
2018-06-19T13:18:19.474Z,3.99
2018-06-19T13:24:14.481Z,3.44
2018-06-19T13:30:09.487Z,3.33
2018-06-19T13:36:04.477Z,4.08
2018-06-19T13:41:59.515Z,4.74
2018-06-19T13:47:54.529Z,4.42
2018-06-19T13:53:49.523Z,3.66
2018-06-19T13:59:44.508Z,4.24
2018-06-19T14:05:39.465Z,3.08
2018-06-19T14:11:34.499Z,3.41
2018-06-19T14:17:29.489Z,3.82
2018-06-19T14:23:24.492Z,4.32
2018-06-19T14:29:19.507Z,3.58
2018-06-19T14:35:14.565Z,4.17
2018-06-19T14:41:09.525Z,3.77
2018-06-19T14:47:04.509Z,3.29
2018-06-19T14:52:59.521Z,3.61
2018-06-19T14:58:54.584Z,3.85
2018-06-19T15:04:49.508Z,4.14
2018-06-19T15:10:44.507Z,4.28
2018-06-19T15:16:39.502Z,3.87
2018-06-19T15:22:34.517Z,3.54
2018-06-19T15:28:29.537Z,3.85
2018-06-19T15:34:24.527Z,3.9
2018-06-19T15:40:19.540Z,3.49
2018-06-19T15:46:14.533Z,3.85
2018-06-19T15:52:09.558Z,3.74
2018-06-19T15:58:04.637Z,3.71
2018-06-19T16:03:59.574Z,3.51
2018-06-19T16:09:54.582Z,4.18
2018-06-19T16:15:49.568Z,3.84
2018-06-19T16:21:44.572Z,3.43
2018-06-19T16:27:39.622Z,3.67
2018-06-19T16:33:34.586Z,3.54
2018-06-19T16:39:29.577Z,3.24
2018-06-19T16:45:24.647Z,3.64
2018-06-19T16:51:19.555Z,3.37
2018-06-19T16:57:14.595Z,3.36
2018-06-19T17:03:09.570Z,3.08
2018-06-19T17:09:04.593Z,3.1
2018-06-19T17:14:59.576Z,3.11
2018-06-19T17:20:54.601Z,2.5
2018-06-19T17:26:49.577Z,2.93
2018-06-19T17:32:44.575Z,2.97
2018-06-19T17:38:39.604Z,3.15
2018-06-19T17:44:34.663Z,3.14
2018-06-19T17:50:29.636Z,2.93
2018-06-19T17:56:24.606Z,2.85
2018-06-19T18:02:19.603Z,2.56
2018-06-19T18:08:14.634Z,2.34
2018-06-19T18:14:09.652Z,2.62
2018-06-19T18:20:04.650Z,2.15
2018-06-19T18:25:59.626Z,2.48
2018-06-19T18:31:54.652Z,2.04
2018-06-19T18:37:49.690Z,2.41
2018-06-19T18:43:44.629Z,2.24
2018-06-19T18:49:39.661Z,3.42
2018-06-19T18:55:34.663Z,2.45
2018-06-19T19:01:29.653Z,2.47
2018-06-19T19:07:24.650Z,2.06
2018-06-19T19:13:19.706Z,2.3
2018-06-19T19:19:14.643Z,2.44
2018-06-19T19:25:09.671Z,2.7
2018-06-19T19:31:04.651Z,2.05
2018-06-19T19:36:59.666Z,2.29
2018-06-19T19:42:54.665Z,2.2
2018-06-19T19:48:49.652Z,2.39
2018-06-19T19:54:44.710Z,2.17
2018-06-19T20:00:39.682Z,2.58
2018-06-19T20:06:34.712Z,2.18
2018-06-19T20:12:29.720Z,2.41
2018-06-19T20:18:24.738Z,2.33
2018-06-19T20:24:19.675Z,1.87
2018-06-19T20:30:14.739Z,2.22
2018-06-19T20:36:09.752Z,2.05
2018-06-19T20:42:04.698Z,1.84
2018-06-19T20:47:59.738Z,1.92
2018-06-19T20:53:54.704Z,1.67
2018-06-19T20:59:49.755Z,1.9
2018-06-19T21:05:44.760Z,1.85
2018-06-19T21:11:39.769Z,1.39
2018-06-19T21:17:34.729Z,1.76
2018-06-19T21:23:29.733Z,2.03
2018-06-19T21:29:24.711Z,1.59
2018-06-19T21:35:19.769Z,1.72
2018-06-19T21:41:14.780Z,1.81
2018-06-19T21:47:09.810Z,1.92
2018-06-19T21:53:04.755Z,1.48
2018-06-19T21:58:59.759Z,1.44
2018-06-19T22:04:54.773Z,1.34
2018-06-19T22:10:49.775Z,1.36
2018-06-19T22:16:44.776Z,1.31
2018-06-19T22:22:39.752Z,1.35
2018-06-19T22:28:34.781Z,1.38
2018-06-19T22:34:29.782Z,1.21
2018-06-19T22:40:24.781Z,1.27
2018-06-19T22:46:19.776Z,1.62
2018-06-19T22:52:14.805Z,1.31
2018-06-19T22:58:09.794Z,1.67
2018-06-19T23:04:04.787Z,1.33
2018-06-19T23:09:59.817Z,1.32
2018-06-19T23:15:54.845Z,1.38
2018-06-19T23:21:49.842Z,1.47
2018-06-19T23:27:44.788Z,1.26
2018-06-19T23:33:39.886Z,1.69
2018-06-19T23:39:34.820Z,1.64
2018-06-19T23:45:29.789Z,1.49
2018-06-19T23:51:24.794Z,1.51
2018-06-19T23:57:19.821Z,1.62
